Time;durP1;ratioP1;P1;durP2;ratioP2;P2;SDS_P1;SDS_P2;PMS_P1;PMS_P2;Temp;Humidity;BMP_temperature;BMP_pressure;BME280_temperature;BME280_humidity;BME280_pressure;Samples;Min_cycle;Max_cycle;Signal;HPM_P1;HPM_P2
2023/06/30 00:00:25;;;;;;;7.32;3.35;;;;;;;15.47;100.00;101354.72;4881459;29;20020;-95
2023/06/30 00:02:51;;;;;;;6.63;3.08;;;;;;;15.37;100.00;101353.69;4897750;29;20059;-94
2023/06/30 00:05:18;;;;;;;6.68;3.45;;;;;;;15.26;100.00;101344.00;4898016;29;20516;-94
2023/06/30 00:07:44;;;;;;;7.88;3.70;;;;;;;15.10;100.00;101343.28;4880282;29;20418;-94
2023/06/30 00:10:10;;;;;;;8.43;3.47;;;;;;;15.05;100.00;101351.38;4878541;29;20025;-94
2023/06/30 00:12:35;;;;;;;7.43;3.20;;;;;;;15.02;100.00;101357.31;4895208;29;20405;-95
2023/06/30 00:15:01;;;;;;;8.93;3.20;;;;;;;14.95;100.00;101347.66;4883965;29;20690;-94
2023/06/30 00:17:26;;;;;;;8.67;3.17;;;;;;;14.94;100.00;101351.44;4876001;29;20136;-93
2023/06/30 00:19:51;;;;;;;8.98;3.10;;;;;;;14.92;100.00;101350.88;4888929;29;20047;-93
2023/06/30 00:22:20;;;;;;;6.07;3.10;;;;;;;14.87;100.00;101350.91;4877283;29;20462;-94
2023/06/30 00:24:55;;;;;;;6.20;3.13;;;;;;;14.88;100.00;101349.81;4896737;29;20053;-95
2023/06/30 00:27:21;;;;;;;6.82;3.15;;;;;;;14.81;100.00;101344.72;4878067;29;20053;-94
2023/06/30 00:29:47;;;;;;;11.10;2.97;;;;;;;14.82;100.00;101343.63;4871409;29;20410;-94
2023/06/30 00:32:12;;;;;;;6.73;3.30;;;;;;;14.75;100.00;101343.09;4897922;29;20391;-94
2023/06/30 00:34:38;;;;;;;5.57;2.70;;;;;;;14.67;100.00;101330.94;4898098;29;20108;-94
2023/06/30 00:37:03;;;;;;;7.93;2.83;;;;;;;14.61;100.00;101325.84;4881297;29;20209;-95
2023/06/30 00:39:28;;;;;;;11.98;2.92;;;;;;;14.55;100.00;101335.84;4899297;29;20477;-94
2023/06/30 00:41:54;;;;;;;12.97;3.07;;;;;;;14.48;100.00;101338.00;4888313;29;20028;-95
2023/06/30 00:44:19;;;;;;;9.07;2.83;;;;;;;14.38;100.00;101336.09;4898663;29;20021;-94
2023/06/30 00:46:45;;;;;;;9.07;2.97;;;;;;;14.34;100.00;101335.84;4879530;29;20504;-93
2023/06/30 00:49:10;;;;;;;12.73;2.53;;;;;;;14.32;100.00;101334.50;4878569;29;20028;-94
2023/06/30 00:51:36;;;;;;;8.30;2.60;;;;;;;14.26;100.00;101335.59;4878407;29;20033;-93
2023/06/30 00:54:01;;;;;;;8.57;2.50;;;;;;;14.24;100.00;101330.47;4878700;29;20470;-94
2023/06/30 00:56:26;;;;;;;9.77;2.47;;;;;;;14.15;100.00;101338.25;4877009;29;20682;-94
2023/06/30 00:58:52;;;;;;;11.57;2.60;;;;;;;14.12;100.00;101340.69;4881552;29;20025;-94
2023/06/30 01:01:23;;;;;;;8.57;2.60;;;;;;;14.09;100.00;101344.75;4882370;29;20035;-93
2023/06/30 01:03:55;;;;;;;11.43;3.10;;;;;;;13.97;100.00;101334.22;4898628;29;20035;-93
2023/06/30 01:06:33;;;;;;;12.23;2.55;;;;;;;13.94;100.00;101345.53;4898665;29;20035;-94
2023/06/30 01:09:08;;;;;;;6.93;2.60;;;;;;;13.90;100.00;101334.50;4897080;29;20119;-93
2023/06/30 01:11:35;;;;;;;6.32;2.10;;;;;;;13.96;100.00;101347.97;4893747;29;20021;-93
2023/06/30 01:14:04;;;;;;;6.30;2.60;;;;;;;13.91;100.00;101340.69;4877072;29;20523;-93
2023/06/30 01:16:31;;;;;;;7.60;2.80;;;;;;;13.90;100.00;101339.88;4893633;29;20017;-94
2023/06/30 01:18:58;;;;;;;14.02;2.67;;;;;;;13.85;100.00;101336.38;4887534;29;20041;-93
2023/06/30 01:21:25;;;;;;;9.38;2.58;;;;;;;13.89;100.00;101345.53;4878452;29;20025;-94
2023/06/30 01:24:04;;;;;;;8.50;2.40;;;;;;;13.88;100.00;101335.81;4896128;29;20027;-93
2023/06/30 01:26:34;;;;;;;8.43;2.47;;;;;;;13.88;100.00;101333.13;4895716;29;20793;-92
2023/06/30 01:29:03;;;;;;;8.77;2.60;;;;;;;13.91;100.00;101346.06;4896093;29;20474;-92
2023/06/30 01:31:31;;;;;;;10.52;2.65;;;;;;;14.01;100.00;101346.09;4879407;29;20025;-93
2023/06/30 01:33:58;;;;;;;11.50;2.50;;;;;;;14.07;100.00;101350.38;4869649;29;20501;-92
2023/06/30 01:36:23;;;;;;;7.47;2.90;;;;;;;14.13;100.00;101348.53;4872647;29;20112;-93
2023/06/30 01:38:49;;;;;;;9.23;2.73;;;;;;;14.08;100.00;101335.84;4859858;29;20178;-93
2023/06/30 01:41:14;;;;;;;7.93;2.70;;;;;;;14.14;100.00;101343.94;4877060;29;20169;-93
2023/06/30 01:43:40;;;;;;;10.43;3.20;;;;;;;14.15;100.00;101337.47;4898429;29;20391;-91
2023/06/30 01:46:06;;;;;;;14.60;2.90;;;;;;;14.10;100.00;101338.28;4895716;29;20047;-93
2023/06/30 01:48:32;;;;;;;12.95;3.00;;;;;;;14.11;100.00;101328.31;4893798;29;20032;-92
2023/06/30 01:50:59;;;;;;;7.57;2.70;;;;;;;13.97;100.00;101325.34;4895617;29;20071;-93
2023/06/30 01:53:27;;;;;;;11.57;2.90;;;;;;;13.94;100.00;101334.75;4879444;29;20025;-92
2023/06/30 01:55:54;;;;;;;7.30;2.83;;;;;;;13.85;100.00;101331.78;4895525;29;20039;-96
2023/06/30 01:58:20;;;;;;;10.25;2.90;;;;;;;13.71;100.00;101318.03;4901268;29;20032;-94
2023/06/30 02:00:45;;;;;;;13.33;2.83;;;;;;;13.70;100.00;101335.25;4884296;29;20029;-94
2023/06/30 02:03:10;;;;;;;7.23;2.63;;;;;;;13.61;100.00;101323.41;4901422;29;20119;-93
2023/06/30 02:05:36;;;;;;;8.93;2.63;;;;;;;13.59;100.00;101331.75;4903273;29;20131;-95
2023/06/30 02:08:01;;;;;;;9.10;2.57;;;;;;;13.40;100.00;101326.03;4895019;29;20032;-95
2023/06/30 02:10:27;;;;;;;14.27;2.57;;;;;;;13.38;100.00;101327.34;4905564;29;20028;-94
2023/06/30 02:12:52;;;;;;;5.73;2.60;;;;;;;13.22;100.00;101330.00;4900353;29;20033;-94
2023/06/30 02:15:17;;;;;;;5.57;2.30;;;;;;;13.12;100.00;101322.69;4921946;29;20027;-94
2023/06/30 02:17:43;;;;;;;7.93;2.13;;;;;;;13.10;100.00;101330.22;4930987;29;20095;-94
2023/06/30 02:20:12;;;;;;;9.53;2.30;;;;;;;13.05;100.00;101332.88;4931736;29;20023;-95
2023/06/30 02:22:38;;;;;;;10.68;3.17;;;;;;;12.96;100.00;101332.56;4899945;29;20041;-95
2023/06/30 02:25:04;;;;;;;8.35;2.38;;;;;;;12.87;100.00;101326.88;4901007;29;20040;-95
2023/06/30 02:27:30;;;;;;;11.03;2.20;;;;;;;12.83;100.00;101328.44;4900736;29;20028;-95
2023/06/30 02:29:56;;;;;;;6.20;2.35;;;;;;;12.78;100.00;101333.78;4899414;29;20092;-95
2023/06/30 02:32:22;;;;;;;10.80;2.30;;;;;;;12.75;100.00;101330.81;4896660;29;20041;-94
2023/06/30 02:34:48;;;;;;;9.70;3.13;;;;;;;12.63;100.00;101328.31;4899037;29;20468;-95
2023/06/30 02:37:13;;;;;;;9.05;2.47;;;;;;;12.62;100.00;101330.22;4900307;29;20619;-94
2023/06/30 02:39:39;;;;;;;7.53;2.35;;;;;;;12.50;100.00;101325.03;4899681;29;20480;-94
2023/06/30 02:42:04;;;;;;;7.47;2.27;;;;;;;12.47;100.00;101330.91;4900660;29;20060;-94
2023/06/30 02:44:30;;;;;;;9.50;2.50;;;;;;;12.40;100.00;101346.47;4900735;29;20024;-94
2023/06/30 02:46:55;;;;;;;7.33;2.47;;;;;;;12.37;100.00;101346.97;4899258;29;20392;-95
2023/06/30 02:49:20;;;;;;;11.73;2.80;;;;;;;12.37;100.00;101357.72;4899966;29;20824;-95
2023/06/30 02:51:46;;;;;;;8.10;2.50;;;;;;;12.31;100.00;101350.69;4898278;29;20033;-94
2023/06/30 02:54:11;;;;;;;7.73;2.80;;;;;;;12.31;100.00;101364.13;4900594;29;20473;-95
2023/06/30 02:56:37;;;;;;;8.83;2.70;;;;;;;12.32;100.00;101360.38;4882353;29;20071;-95
2023/06/30 02:59:02;;;;;;;10.20;2.50;;;;;;;12.31;100.00;101361.44;4900233;29;20064;-95
2023/06/30 03:01:27;;;;;;;6.60;2.87;;;;;;;12.17;100.00;101353.81;4902255;29;20871;-95
2023/06/30 03:03:53;;;;;;;7.77;2.60;;;;;;;12.18;100.00;101359.97;4919324;29;20032;-96
2023/06/30 03:06:20;;;;;;;9.00;2.70;;;;;;;12.16;100.00;101364.78;4918284;29;20079;-94
2023/06/30 03:08:45;;;;;;;6.55;3.10;;;;;;;12.08;100.00;101363.38;4901540;29;20085;-94
2023/06/30 03:11:11;;;;;;;8.90;3.00;;;;;;;11.99;100.00;101351.50;4899347;29;20028;-95
2023/06/30 03:13:36;;;;;;;6.25;2.50;;;;;;;11.94;100.00;101353.03;4899284;29;20461;-96
2023/06/30 03:16:01;;;;;;;8.77;2.83;;;;;;;11.89;100.00;101358.34;4899278;29;20036;-95
2023/06/30 03:18:27;;;;;;;10.63;3.17;;;;;;;11.82;100.00;101352.38;4899044;29;20060;-94
2023/06/30 03:20:52;;;;;;;10.03;3.03;;;;;;;11.84;100.00;101352.94;4911130;29;20031;-95
2023/06/30 03:23:20;;;;;;;9.02;3.25;;;;;;;11.79;100.00;101352.88;4893502;29;20033;-95
2023/06/30 03:25:46;;;;;;;7.07;3.03;;;;;;;11.72;100.00;101344.19;4896929;29;20025;-94
2023/06/30 03:28:11;;;;;;;9.37;2.97;;;;;;;11.69;100.00;101336.66;4899327;29;20276;-94
2023/06/30 03:30:36;;;;;;;6.83;3.10;;;;;;;11.59;100.00;101332.81;4908588;29;20489;-96
2023/06/30 03:33:02;;;;;;;9.63;2.97;;;;;;;11.60;100.00;101339.78;4905849;29;20170;-95
2023/06/30 03:35:27;;;;;;;9.83;2.70;;;;;;;11.58;100.00;101331.19;4897977;29;20056;-95
2023/06/30 03:37:53;;;;;;;7.20;3.10;;;;;;;11.54;100.00;101342.69;4898065;29;20533;-95
2023/06/30 03:40:18;;;;;;;7.03;2.83;;;;;;;11.47;100.00;101332.16;4898612;29;20404;-94
2023/06/30 03:42:43;;;;;;;11.67;2.90;;;;;;;11.48;100.00;101339.13;4898153;29;20032;-95
2023/06/30 03:45:09;;;;;;;12.27;2.85;;;;;;;11.48;100.00;101344.50;4878620;29;20025;-95
2023/06/30 03:47:35;;;;;;;6.53;3.00;;;;;;;11.44;100.00;101329.97;4894964;29;20566;-95
2023/06/30 03:50:00;;;;;;;9.73;3.30;;;;;;;11.45;100.00;101336.94;4898322;29;20038;-95
2023/06/30 03:52:25;;;;;;;7.60;2.67;;;;;;;11.39;100.00;101333.41;4898366;29;20028;-95
2023/06/30 03:54:51;;;;;;;8.63;3.20;;;;;;;11.41;100.00;101325.09;4905885;29;20084;-95
2023/06/30 03:57:16;;;;;;;8.20;2.83;;;;;;;11.44;100.00;101329.97;4895389;29;20037;-96
2023/06/30 03:59:42;;;;;;;13.80;3.23;;;;;;;11.50;100.00;101328.97;4899102;29;21009;-96
2023/06/30 04:02:07;;;;;;;8.77;3.30;;;;;;;11.52;100.00;101333.00;4878996;29;20952;-95
2023/06/30 04:04:32;;;;;;;8.50;3.60;;;;;;;11.60;100.00;101322.88;4896102;29;20056;-95
2023/06/30 04:06:58;;;;;;;10.97;3.40;;;;;;;11.64;100.00;101324.81;4897876;29;20087;-95
2023/06/30 04:09:23;;;;;;;9.75;3.28;;;;;;;11.67;100.00;101323.50;4896134;29;20119;-93
2023/06/30 04:11:49;;;;;;;8.50;3.60;;;;;;;11.75;100.00;101338.34;4870679;29;20117;-95
2023/06/30 04:14:15;;;;;;;8.35;3.75;;;;;;;11.75;100.00;101336.47;4877960;29;20025;-93
2023/06/30 04:16:41;;;;;;;8.73;3.60;;;;;;;11.84;100.00;101333.31;4902464;29;20032;-93
2023/06/30 04:19:07;;;;;;;8.30;3.60;;;;;;;11.86;100.00;101336.56;4896350;29;20080;-93
2023/06/30 04:21:32;;;;;;;10.70;3.23;;;;;;;11.85;100.00;101324.19;4895833;29;20059;-92
2023/06/30 04:23:57;;;;;;;9.10;3.60;;;;;;;11.92;100.00;101341.72;4891041;29;20029;-93
2023/06/30 04:26:23;;;;;;;11.87;3.33;;;;;;;12.00;100.00;101342.38;4899165;29;20040;-93
2023/06/30 04:28:48;;;;;;;13.83;3.97;;;;;;;12.14;100.00;101332.03;4896036;29;20288;-93
2023/06/30 04:31:14;;;;;;;7.63;3.57;;;;;;;12.29;100.00;101337.50;4875956;29;20029;-93
2023/06/30 04:33:39;;;;;;;8.43;3.65;;;;;;;12.27;100.00;101337.75;4900783;29;20020;-92
2023/06/30 04:36:06;;;;;;;7.33;3.27;;;;;;;12.35;100.00;101341.03;4891850;29;20033;-93
2023/06/30 04:38:32;;;;;;;10.35;3.78;;;;;;;12.30;100.00;101338.31;4875783;29;20076;-92
2023/06/30 04:40:58;;;;;;;12.48;3.72;;;;;;;12.34;100.00;101342.13;4895110;29;20503;-92
2023/06/30 04:43:23;;;;;;;11.80;3.53;;;;;;;12.34;100.00;101334.84;4895194;29;20025;-92
2023/06/30 04:45:49;;;;;;;11.87;3.93;;;;;;;12.41;100.00;101332.75;4893940;29;20024;-93
2023/06/30 04:48:14;;;;;;;11.00;3.87;;;;;;;12.46;100.00;101333.88;4896153;29;20120;-92
2023/06/30 04:50:40;;;;;;;9.20;3.63;;;;;;;12.71;100.00;101342.09;4895693;29;20322;-93
2023/06/30 04:53:05;;;;;;;12.65;4.25;;;;;;;13.25;100.00;101337.50;4895572;29;20108;-94
2023/06/30 04:55:31;;;;;;;10.00;3.60;;;;;;;14.17;100.00;101341.50;4884331;29;20120;-94
2023/06/30 04:57:56;;;;;;;10.93;3.83;;;;;;;15.05;100.00;101351.38;4866158;29;20037;-92
2023/06/30 05:00:25;;;;;;;8.13;3.07;;;;;;;15.93;100.00;101351.78;4884043;29;20021;-92
2023/06/30 05:02:50;;;;;;;7.35;3.47;;;;;;;16.70;100.00;101350.28;4897189;29;20119;-93
2023/06/30 05:05:16;;;;;;;6.95;3.00;;;;;;;17.32;97.10;101359.63;4895947;29;20127;-92
2023/06/30 05:07:41;;;;;;;5.63;3.23;;;;;;;17.98;92.76;101357.13;4895481;29;20048;-91
2023/06/30 05:10:09;;;;;;;10.65;3.20;;;;;;;18.66;88.39;101354.06;4895277;29;20045;-91
2023/06/30 05:12:34;;;;;;;8.65;2.80;;;;;;;19.27;83.90;101354.78;4895217;29;20029;-93
2023/06/30 05:15:00;;;;;;;4.87;2.60;;;;;;;19.80;80.55;101347.13;4898772;29;20035;-93
2023/06/30 05:17:25;;;;;;;9.93;3.10;;;;;;;20.30;76.59;101351.63;4875150;29;20041;-92
2023/06/30 05:19:51;;;;;;;5.85;2.67;;;;;;;20.74;72.62;101340.94;4932576;23;20052;-96
2023/06/30 05:22:19;;;;;;;8.80;3.03;;;;;;;21.01;70.25;101317.38;4930725;29;20059;-96
2023/06/30 05:24:46;;;;;;;6.65;2.85;;;;;;;21.61;67.26;101354.00;4930131;29;20032;-96
2023/06/30 05:27:45;;;;;;;8.63;2.47;;;;;;;22.02;69.36;101362.03;4921068;29;20033;-96
2023/06/30 05:30:13;;;;;;;8.00;2.70;;;;;;;22.27;63.50;101359.59;4928216;29;20060;-96
2023/06/30 05:32:39;;;;;;;6.10;2.90;;;;;;;22.49;61.59;101342.97;4922590;29;20035;-94
2023/06/30 05:35:05;;;;;;;6.30;3.20;;;;;;;22.61;59.44;101355.97;4916987;29;20532;-90
2023/06/30 05:37:30;;;;;;;12.17;3.50;;;;;;;22.80;58.66;101365.69;4910064;29;20315;-90
2023/06/30 05:39:55;;;;;;;6.87;2.60;;;;;;;22.90;58.39;101362.59;4915701;29;20598;-88
2023/06/30 05:42:20;;;;;;;6.43;2.80;;;;;;;22.96;56.09;101360.47;4916094;29;20396;-87
2023/06/30 05:44:46;;;;;;;5.90;2.85;;;;;;;22.97;56.64;101351.94;4916395;29;20421;-89
2023/06/30 05:47:11;;;;;;;6.33;2.93;;;;;;;23.07;57.02;101361.69;4915319;29;20067;-88
2023/06/30 05:49:37;;;;;;;5.90;3.07;;;;;;;23.08;55.79;101360.56;4912660;29;20028;-88
2023/06/30 05:52:02;;;;;;;8.90;3.03;;;;;;;23.04;55.82;101362.34;4913412;29;20394;-88
2023/06/30 05:54:27;;;;;;;6.87;2.67;;;;;;;22.86;56.46;101366.28;4902487;29;20032;-87
2023/06/30 05:56:53;;;;;;;6.97;2.72;;;;;;;22.75;56.98;101368.59;4915235;29;20047;-88
2023/06/30 05:59:18;;;;;;;8.33;2.60;;;;;;;22.58;57.24;101361.28;4907864;29;20108;-88
2023/06/30 06:01:43;;;;;;;5.63;2.83;;;;;;;22.18;56.90;101371.31;4910022;29;20734;-88
2023/06/30 06:04:10;;;;;;;4.83;2.70;;;;;;;21.54;57.80;101370.03;4909677;29;20024;-88
2023/06/30 06:06:36;;;;;;;7.45;2.85;;;;;;;21.15;60.19;101360.84;4902141;29;20504;-88
2023/06/30 06:09:01;;;;;;;7.57;2.67;;;;;;;20.87;61.25;101356.44;4916156;29;20031;-88
2023/06/30 06:11:27;;;;;;;5.07;2.50;;;;;;;20.77;61.80;101358.63;4917494;29;20028;-89
2023/06/30 06:13:52;;;;;;;7.07;2.30;;;;;;;20.58;61.61;101363.16;4915837;29;20111;-89
2023/06/30 06:16:18;;;;;;;5.13;2.50;;;;;;;20.29;62.16;101358.19;4910359;29;20031;-90
2023/06/30 06:18:43;;;;;;;4.82;2.35;;;;;;;20.05;62.79;101362.06;4934848;29;20059;-88
2023/06/30 06:21:08;;;;;;;5.17;2.20;;;;;;;19.87;64.51;101363.84;4928103;29;20028;-90
2023/06/30 06:23:33;;;;;;;6.07;2.37;;;;;;;19.63;66.08;101348.56;4936949;29;20026;-91
2023/06/30 06:26:01;;;;;;;6.73;2.87;;;;;;;19.51;65.50;101361.91;4935755;29;20027;-90
2023/06/30 06:28:27;;;;;;;8.85;2.38;;;;;;;19.31;62.55;101361.22;4916303;29;20032;-89
2023/06/30 06:30:52;;;;;;;9.02;2.10;;;;;;;19.03;63.96;101369.41;4910348;29;20116;-88
2023/06/30 06:33:20;;;;;;;6.87;2.13;;;;;;;18.87;66.80;101368.06;4904516;29;20475;-89
2023/06/30 06:35:45;;;;;;;7.30;2.50;;;;;;;18.87;70.12;101368.88;4906758;29;20028;-86
2023/06/30 06:38:10;;;;;;;5.67;2.53;;;;;;;18.94;70.73;101371.19;4900228;29;20039;-89
2023/06/30 06:40:36;;;;;;;3.90;2.60;;;;;;;18.98;68.62;101368.72;4913370;29;20055;-86
2023/06/30 06:43:02;;;;;;;4.07;2.10;;;;;;;18.98;69.80;101374.94;4908805;29;20036;-90
2023/06/30 06:45:28;;;;;;;4.93;1.98;;;;;;;18.85;65.55;101365.66;4898533;29;21378;-89
2023/06/30 06:48:21;;;;;;;4.30;2.10;;;;;;;18.80;66.38;101367.66;4908247;29;20044;-90
2023/06/30 06:50:57;;;;;;;5.60;2.40;;;;;;;18.72;68.29;101366.44;4919496;29;20040;-95
2023/06/30 06:53:26;;;;;;;5.35;2.30;;;;;;;18.68;66.23;101365.44;4920593;29;20046;-91
2023/06/30 06:55:53;;;;;;;7.03;2.42;;;;;;;18.50;65.16;101358.97;4919252;29;20079;-93
2023/06/30 06:58:19;;;;;;;4.13;2.13;;;;;;;18.41;68.56;101361.59;4914885;29;20677;-93
2023/06/30 07:00:46;;;;;;;7.53;2.58;;;;;;;18.47;69.65;101354.94;4919573;29;20028;-89
2023/06/30 07:03:12;;;;;;;5.43;2.38;;;;;;;18.55;68.89;101359.69;4917874;29;20117;-94
2023/06/30 07:05:39;;;;;;;7.80;2.57;;;;;;;18.72;68.20;101363.72;4916054;29;20056;-91
2023/06/30 07:08:08;;;;;;;4.03;1.92;;;;;;;18.74;66.34;101369.66;4915959;29;20337;-91
2023/06/30 07:10:33;;;;;;;6.05;2.20;;;;;;;18.83;67.83;101365.13;4913797;29;20032;-92
2023/06/30 07:12:59;;;;;;;6.43;1.80;;;;;;;18.96;66.13;101365.50;4904212;29;20167;-91
2023/06/30 07:15:25;;;;;;;8.02;2.20;;;;;;;19.13;66.21;101375.72;4915982;29;20043;-89
2023/06/30 07:17:50;;;;;;;7.97;1.80;;;;;;;19.26;65.87;101374.94;4916308;29;20032;-88
2023/06/30 07:20:16;;;;;;;6.30;2.10;;;;;;;19.17;60.63;101377.53;4915397;29;20131;-87
2023/06/30 07:22:41;;;;;;;4.13;1.70;;;;;;;19.15;63.32;101359.94;4912478;29;20032;-90
2023/06/30 07:25:07;;;;;;;6.63;1.53;;;;;;;19.20;61.81;101363.34;4910598;29;20132;-88
2023/06/30 07:27:35;;;;;;;3.80;1.60;;;;;;;19.29;59.22;101368.09;4909772;29;20796;-89
2023/06/30 07:30:01;;;;;;;7.70;1.50;;;;;;;19.28;59.15;101361.84;4909598;29;20484;-92
2023/06/30 07:32:27;;;;;;;3.33;1.23;;;;;;;19.43;58.43;101366.16;4912812;29;20032;-89
2023/06/30 07:34:52;;;;;;;4.27;1.70;;;;;;;19.40;57.82;101364.03;4914140;29;20385;-94
2023/06/30 07:37:18;;;;;;;5.57;1.40;;;;;;;19.43;56.25;101379.72;4914452;29;20034;-92
2023/06/30 07:39:43;;;;;;;3.67;1.60;;;;;;;19.40;55.83;101371.41;4922988;29;20084;-94
2023/06/30 07:42:08;;;;;;;4.53;1.70;;;;;;;19.29;54.93;101368.88;4916556;29;20043;-90
2023/06/30 07:44:34;;;;;;;1.70;1.10;;;;;;;19.63;58.25;101374.97;4920412;29;20597;-91
2023/06/30 07:46:59;;;;;;;4.70;1.40;;;;;;;19.89;58.21;101380.66;4932898;29;20188;-93
2023/06/30 07:49:25;;;;;;;4.35;1.40;;;;;;;19.93;56.15;101372.66;4917471;29;20028;-94
2023/06/30 07:51:51;;;;;;;3.50;1.40;;;;;;;20.02;54.11;101379.00;4918035;29;20020;-93
2023/06/30 07:54:16;;;;;;;3.40;1.60;;;;;;;20.18;55.23;101373.97;4917607;29;20284;-93
2023/06/30 07:56:42;;;;;;;10.53;1.33;;;;;;;20.43;54.34;101366.28;4900184;29;20036;-93
2023/06/30 07:59:07;;;;;;;3.83;1.60;;;;;;;20.70;55.50;101365.28;4917648;29;20034;-93
2023/06/30 08:01:32;;;;;;;2.90;1.43;;;;;;;20.87;52.27;101372.78;4918315;29;20047;-94
2023/06/30 08:03:58;;;;;;;2.85;1.40;;;;;;;21.03;48.99;101373.13;4899939;29;20063;-93
2023/06/30 08:06:23;;;;;;;2.50;1.40;;;;;;;21.01;48.78;101380.00;4919565;29;20036;-95
2023/06/30 08:08:48;;;;;;;2.50;1.37;;;;;;;21.05;49.00;101374.72;4920017;29;20103;-94
2023/06/30 08:11:14;;;;;;;3.33;1.43;;;;;;;20.92;48.10;101380.00;4925339;29;20036;-94
2023/06/30 08:13:39;;;;;;;4.00;1.50;;;;;;;20.96;49.76;101380.97;4920539;29;20031;-94
2023/06/30 08:16:04;;;;;;;2.95;1.02;;;;;;;21.00;46.65;101368.31;4922788;29;20150;-93
2023/06/30 08:18:30;;;;;;;3.93;1.23;;;;;;;21.07;49.30;101353.44;4920793;29;20032;-93
2023/06/30 08:20:58;;;;;;;6.70;1.40;;;;;;;21.25;46.82;101373.34;4918408;29;20071;-95
2023/06/30 08:23:25;;;;;;;4.43;1.63;;;;;;;21.30;48.55;101376.72;4920695;29;20032;-95
2023/06/30 08:25:53;;;;;;;3.97;1.40;;;;;;;21.47;46.69;101375.16;4919959;29;20099;-96
2023/06/30 08:28:19;;;;;;;4.47;1.30;;;;;;;21.68;48.81;101359.00;4923902;29;20035;-94
2023/06/30 08:30:44;;;;;;;5.17;1.87;;;;;;;21.89;46.17;101375.53;4922349;29;20371;-95
2023/06/30 08:33:10;;;;;;;4.20;1.40;;;;;;;21.94;47.34;101371.81;4919617;29;20039;-94
2023/06/30 08:35:35;;;;;;;7.67;1.80;;;;;;;22.07;46.22;101370.06;4920324;29;20059;-95
2023/06/30 08:38:00;;;;;;;3.93;1.33;;;;;;;22.46;46.85;101365.47;4918788;29;20060;-93
2023/06/30 08:40:29;;;;;;;5.17;1.77;;;;;;;22.67;44.16;101370.22;4917997;29;20043;-95
2023/06/30 08:42:56;;;;;;;3.22;1.50;;;;;;;22.94;44.17;101351.78;4922756;29;20038;-94
2023/06/30 08:45:26;;;;;;;4.30;1.50;;;;;;;23.40;44.71;101357.50;4922411;29;20087;-95
2023/06/30 08:47:52;;;;;;;3.07;1.30;;;;;;;23.55;42.71;101342.44;4922587;29;20036;-94
2023/06/30 08:50:20;;;;;;;4.47;1.50;;;;;;;23.66;40.94;101354.56;4922341;29;20287;-94
2023/06/30 08:52:45;;;;;;;3.05;1.20;;;;;;;23.70;40.54;101347.28;4923231;29;20059;-94
2023/06/30 08:55:11;;;;;;;5.68;1.35;;;;;;;23.87;41.48;101346.31;4923623;29;20072;-94
2023/06/30 08:57:37;;;;;;;3.13;1.43;;;;;;;23.94;40.32;101348.50;4920854;29;20537;-94
2023/06/30 09:00:04;;;;;;;3.08;1.48;;;;;;;23.80;40.04;101337.88;4934782;29;20056;-95
2023/06/30 09:02:29;;;;;;;3.63;1.35;;;;;;;23.56;40.74;101344.00;4927926;29;20024;-95
2023/06/30 09:04:55;;;;;;;5.13;1.80;;;;;;;23.66;41.79;101345.53;4920048;29;20028;-94
2023/06/30 09:07:38;;;;;;;3.42;1.80;;;;;;;23.81;43.22;101339.47;4938786;29;20068;-95
2023/06/30 09:10:09;;;;;;;4.43;1.90;;;;;;;24.09;41.18;101325.19;4905147;29;20056;-95
2023/06/30 09:12:34;;;;;;;3.45;1.80;;;;;;;24.51;38.93;101337.94;4920413;29;20024;-95
2023/06/30 09:15:04;;;;;;;2.93;1.40;;;;;;;24.76;39.22;101329.75;4923787;29;20496;-94
2023/06/30 09:17:30;;;;;;;3.15;1.65;;;;;;;24.90;38.50;101334.91;4921028;29;20047;-94
2023/06/30 09:19:56;;;;;;;4.10;1.50;;;;;;;24.85;37.98;101332.38;4920578;29;20135;-93
2023/06/30 09:22:21;;;;;;;2.93;1.40;;;;;;;25.05;39.08;101323.22;4919382;29;20484;-94
2023/06/30 09:24:47;;;;;;;2.43;1.50;;;;;;;25.32;38.92;101331.06;4919984;29;20091;-94
2023/06/30 09:27:13;;;;;;;3.40;1.70;;;;;;;25.29;39.11;101327.03;4923020;29;20443;-95
2023/06/30 09:29:39;;;;;;;4.78;2.30;;;;;;;25.40;38.64;101341.88;4921446;29;20024;-95
2023/06/30 09:32:05;;;;;;;5.00;1.97;;;;;;;25.58;38.78;101338.06;4936853;29;20028;-95
2023/06/30 09:34:30;;;;;;;4.82;2.15;;;;;;;25.52;39.88;101327.34;4936795;29;20120;-95
2023/06/30 09:36:56;;;;;;;4.05;1.80;;;;;;;25.41;39.46;101317.97;4932563;29;20044;-95
2023/06/30 09:39:22;;;;;;;4.00;1.60;;;;;;;25.39;39.62;101331.25;4920374;29;20396;-96
2023/06/30 09:41:50;;;;;;;5.20;1.95;;;;;;;25.15;38.67;101329.34;4923222;29;20024;-94
2023/06/30 09:44:17;;;;;;;3.42;1.88;;;;;;;25.19;39.25;101330.28;4922962;29;20024;-95
2023/06/30 09:46:47;;;;;;;5.35;1.90;;;;;;;25.38;39.35;101324.97;4924820;29;20111;-94
2023/06/30 09:49:30;;;;;;;5.00;1.97;;;;;;;25.84;39.79;101332.13;4923003;29;20132;-94
2023/06/30 09:51:56;;;;;;;4.53;1.70;;;;;;;26.11;35.54;101326.97;4923545;29;20272;-93
2023/06/30 09:54:23;;;;;;;2.80;1.67;;;;;;;26.38;36.58;101308.84;4927115;29;20026;-94
2023/06/30 09:57:05;;;;;;;4.88;2.08;;;;;;;26.25;35.94;101334.81;4925812;29;20032;-94
2023/06/30 09:59:31;;;;;;;5.93;2.25;;;;;;;25.59;36.35;101332.25;4937232;29;20028;-94
2023/06/30 10:01:58;;;;;;;7.65;2.13;;;;;;;25.08;37.69;101299.78;4939358;29;20489;-93
2023/06/30 10:04:25;;;;;;;6.90;3.05;;;;;;;25.11;38.09;101329.25;4934423;29;20044;-92
2023/06/30 10:06:54;;;;;;;4.32;2.08;;;;;;;25.27;38.99;101315.66;4916594;29;20480;-94
2023/06/30 10:09:22;;;;;;;3.30;2.15;;;;;;;25.50;37.98;101313.19;4934853;29;20039;-93
2023/06/30 10:12:08;;;;;;;5.00;1.70;;;;;;;25.78;37.55;101314.34;4935313;29;20463;-93
2023/06/30 10:14:36;;;;;;;3.57;1.83;;;;;;;26.25;36.34;101316.38;4933640;29;20284;-93
2023/06/30 10:17:04;;;;;;;3.05;1.85;;;;;;;27.04;35.91;101325.69;4933325;29;20067;-94
2023/06/30 10:19:29;;;;;;;4.97;1.92;;;;;;;26.83;34.22;101323.25;4937355;29;20016;-94
2023/06/30 10:21:56;;;;;;;4.32;2.03;;;;;;;26.78;32.74;101318.00;4936410;29;20029;-92
2023/06/30 10:24:37;;;;;;;5.20;1.90;;;;;;;26.56;33.95;101311.22;4933660;29;20028;-94
2023/06/30 10:27:07;;;;;;;7.85;1.88;;;;;;;26.87;35.53;101309.59;4941868;29;20052;-94
2023/06/30 10:29:34;;;;;;;3.35;1.92;;;;;;;27.09;34.36;101304.56;4934279;29;20469;-94
2023/06/30 10:31:59;;;;;;;4.20;1.90;;;;;;;27.27;33.87;101297.50;4922936;29;20020;-94
2023/06/30 10:34:25;;;;;;;2.77;1.90;;;;;;;27.18;33.22;101288.69;4921675;29;20131;-95
2023/06/30 10:36:51;;;;;;;3.65;1.95;;;;;;;27.09;33.11;101291.63;4931821;29;20059;-94
2023/06/30 10:39:17;;;;;;;5.30;2.10;;;;;;;27.00;33.45;101289.09;4916703;29;20036;-96
2023/06/30 10:41:49;;;;;;;6.00;2.22;;;;;;;27.28;34.17;101299.09;4935268;29;20031;-95
2023/06/30 10:44:15;;;;;;;4.53;1.87;;;;;;;27.24;33.45;101308.44;4934266;29;20035;-93
2023/06/30 10:46:43;;;;;;;5.90;2.20;;;;;;;26.86;33.50;101294.25;4932756;29;20288;-94
2023/06/30 10:49:23;;;;;;;2.97;2.05;;;;;;;26.98;34.14;101294.16;4927465;29;20032;-94
2023/06/30 10:51:50;;;;;;;5.95;2.30;;;;;;;27.13;33.56;101289.72;4928725;29;20032;-95
2023/06/30 10:54:26;;;;;;;5.10;1.90;;;;;;;27.59;33.38;101299.31;4928878;29;20107;-94
2023/06/30 10:57:16;;;;;;;3.50;2.00;;;;;;;27.86;33.49;101289.22;4928260;29;20063;-94
2023/06/30 10:59:43;;;;;;;5.47;2.53;;;;;;;27.64;31.25;101266.78;4932169;29;20032;-94
2023/06/30 11:02:22;;;;;;;3.25;1.90;;;;;;;27.27;33.78;101270.00;4933406;29;20032;-95
2023/06/30 11:04:52;;;;;;;4.07;2.10;;;;;;;26.78;33.17;101268.53;4928165;29;20028;-94
2023/06/30 11:07:27;;;;;;;3.37;1.83;;;;;;;26.84;35.40;101267.13;4929762;29;20103;-95
2023/06/30 11:09:53;;;;;;;3.07;2.30;;;;;;;27.16;33.53;101268.97;4931695;29;20272;-93
2023/06/30 11:12:23;;;;;;;3.38;1.95;;;;;;;27.17;31.37;101267.81;4913657;29;20036;-95
2023/06/30 11:14:59;;;;;;;3.90;2.17;;;;;;;27.11;32.69;101272.81;4927221;29;20064;-94
2023/06/30 11:17:45;;;;;;;4.00;1.70;;;;;;;27.26;33.46;101262.91;4929335;29;20287;-93